Wausau Downtown Airport
KAUW : now visible

Airfield :











YOU CAN JOIN US ON...

 
LOGIN :

Register | Disclaimer

   EN    FR    IT 

 









Legend :    VFR   Marginal VFR   IFR   Intensive IFR   Very Intensive IFR
Visi :
Ceiling :
>= 8 km
>= 3000ft
5 to 8 km
1000 to 3000 ft
1500m to 5 km
500 to 1000 ft
800 to 1500m
200 to 500 ft
< 800m
< 200 ft
Symbols :   Thunderstorms  Fog  Heavy snow  Heavy precipitations  Wind > 20 kt






- Airport Elevation : 1201 ft


KAUW - Wausau Downtown

CURRENT METAR :
  • 081854Z AUTO 27013KT 10SM SCT080 13/00 A2969 RMK AO2 SLP060 T01280000

EXPIRED METARs :
  • 081754Z AUTO 29014G20KT 10SM FEW055 OVC090 14/02 A2969 RMK AO2 SLP062 T01390017 10156 20028 56010
  • 081654Z AUTO 28012KT 10SM CLR 15/02 A2970 RMK AO2 SLP063 T01500017

TAF KAUW
Valid from the 08 at 18:00 until the 09 at 18:00 UTC


081732Z 0818/0918 29013G20KT P6SM BKN120
FM090100 30011KT P6SM SCT090
FM091400 30016G25KT P6SM SCT035 BKN050



MET'MAP, your aeronautical weather chart ! - Copyright ORBIFLY December 2007 - Disclaimer

ORBIFLY MET'MAP TEAM :

Programming & Development : Alexandra Zaïnal
Concept & original design : Baudouin d'Aumeries
Assistance for programming : Marc-Olivier Méhu
Technical & hardware support : Manuel Goepfert

Contact : metmap@orbifly.com




SOURCES & CREDITS :

   NOAA       Earth
Advisory